createdAt,value
2022-10-28T00:02:12.063Z,14.20
2022-10-28T00:04:44.033Z,14.20
2022-10-28T00:07:16.201Z,14.20
2022-10-28T00:09:48.348Z,14.20
2022-10-28T00:12:21.279Z,14.20
2022-10-28T00:14:53.281Z,14.10
2022-10-28T00:17:25.272Z,14.20
2022-10-28T00:19:57.228Z,14.20
2022-10-28T00:22:29.328Z,14.20
2022-10-28T00:25:01.313Z,14.20
2022-10-28T00:27:33.409Z,14.20
2022-10-28T00:30:06.050Z,14.10
2022-10-28T00:32:38.434Z,14.10
2022-10-28T00:35:10.415Z,14.10
2022-10-28T00:37:42.464Z,14.10
2022-10-28T00:40:14.497Z,14.10
2022-10-28T00:42:46.464Z,14.10
2022-10-28T00:45:18.606Z,14.20
2022-10-28T00:48:00.854Z,14.20
2022-10-28T00:50:46.731Z,14.30
2022-10-28T00:53:27.584Z,14.30
2022-10-28T00:56:03.227Z,14.40
2022-10-28T00:58:36.902Z,14.40
2022-10-28T01:01:09.253Z,14.50
2022-10-28T01:03:41.313Z,14.50
2022-10-28T01:06:14.178Z,14.50
2022-10-28T01:08:46.600Z,14.50
2022-10-28T01:11:31.343Z,14.50
2022-10-28T01:14:37.874Z,14.40
2022-10-28T01:17:34.133Z,14.40
2022-10-28T01:20:41.727Z,14.40
2022-10-28T01:23:59.509Z,14.30
2022-10-28T01:27:39.324Z,14.30
2022-10-28T01:31:09.637Z,14.20
2022-10-28T01:34:28.548Z,14.10
2022-10-28T01:37:56.055Z,14.10
2022-10-28T01:41:06.473Z,14.10
2022-10-28T01:43:53.499Z,14.00
2022-10-28T01:46:55.570Z,14.00
2022-10-28T01:49:52.199Z,14.00
2022-10-28T01:52:31.730Z,13.90
2022-10-28T01:55:11.987Z,13.90
2022-10-28T01:58:34.030Z,13.90
2022-10-28T02:01:10.464Z,13.90
2022-10-28T02:03:42.712Z,13.80
2022-10-28T02:06:20.789Z,13.80
2022-10-28T02:09:15.799Z,13.70
2022-10-28T02:12:22.065Z,13.60
2022-10-28T02:15:19.552Z,13.60
2022-10-28T02:18:20.612Z,13.60
2022-10-28T02:21:09.207Z,13.60
2022-10-28T02:24:24.402Z,13.60
2022-10-28T02:27:44.809Z,13.50
2022-10-28T02:30:27.979Z,13.50
2022-10-28T02:33:12.845Z,13.40
2022-10-28T02:35:56.241Z,13.40
2022-10-28T02:38:40.068Z,13.40
2022-10-28T02:41:33.139Z,13.30
2022-10-28T02:44:35.594Z,13.30
2022-10-28T02:47:18.275Z,13.30
2022-10-28T02:50:01.392Z,13.30
2022-10-28T02:52:39.716Z,13.20
2022-10-28T02:55:13.353Z,13.20
2022-10-28T02:57:49.207Z,13.20
2022-10-28T03:00:24.591Z,13.20
2022-10-28T03:02:57.120Z,13.30
2022-10-28T03:05:29.090Z,13.30
2022-10-28T03:08:01.079Z,13.30
2022-10-28T03:10:33.179Z,13.30
2022-10-28T03:13:05.369Z,13.30
2022-10-28T03:15:37.298Z,13.30
2022-10-28T03:18:09.341Z,13.20
2022-10-28T03:20:41.292Z,13.30
2022-10-28T03:23:13.342Z,13.30
2022-10-28T03:25:45.298Z,13.30
2022-10-28T03:28:17.291Z,13.30
2022-10-28T03:30:49.356Z,13.30
2022-10-28T03:33:21.405Z,13.30
2022-10-28T03:35:53.383Z,13.40
2022-10-28T03:38:25.458Z,13.40
2022-10-28T03:40:57.608Z,13.40
2022-10-28T03:43:29.770Z,13.50
2022-10-28T03:46:01.733Z,13.50
2022-10-28T03:48:33.927Z,13.50
2022-10-28T03:51:06.228Z,13.50
2022-10-28T03:53:38.210Z,13.60
2022-10-28T03:56:11.712Z,13.60
2022-10-28T03:58:43.697Z,13.60
2022-10-28T04:01:18.742Z,13.60
2022-10-28T04:03:51.182Z,13.60
2022-10-28T04:06:23.340Z,13.60
2022-10-28T04:08:55.331Z,13.60
2022-10-28T04:11:27.433Z,13.60
2022-10-28T04:13:59.520Z,13.60
2022-10-28T04:16:31.484Z,13.60
2022-10-28T04:19:03.820Z,13.60
2022-10-28T04:21:35.733Z,13.60
2022-10-28T04:24:07.738Z,13.60
2022-10-28T04:26:40.050Z,13.60
2022-10-28T04:29:12.378Z,13.60
2022-10-28T04:31:46.446Z,13.60
2022-10-28T04:34:20.595Z,13.70
2022-10-28T04:37:00.784Z,13.70
2022-10-28T04:39:32.705Z,13.70
2022-10-28T04:42:04.740Z,13.70
2022-10-28T04:44:36.786Z,13.70
2022-10-28T04:47:08.656Z,13.70
2022-10-28T04:49:40.609Z,13.70
2022-10-28T04:52:14.915Z,13.70
2022-10-28T04:54:48.050Z,13.70
2022-10-28T04:57:20.219Z,13.70
2022-10-28T04:59:52.217Z,13.70
2022-10-28T05:02:24.461Z,13.70
2022-10-28T05:05:00.214Z,13.70
2022-10-28T05:07:34.698Z,13.70
2022-10-28T05:10:07.027Z,13.70
2022-10-28T05:12:43.259Z,13.70
2022-10-28T05:15:16.625Z,13.70
2022-10-28T05:17:48.987Z,13.70
2022-10-28T05:20:21.250Z,13.80
2022-10-28T05:22:55.434Z,13.70
2022-10-28T05:25:27.982Z,13.70
2022-10-28T05:28:00.518Z,13.70
2022-10-28T05:30:32.587Z,13.70
2022-10-28T05:33:05.043Z,13.70
2022-10-28T05:35:37.931Z,13.70
2022-10-28T05:38:10.600Z,13.60
2022-10-28T05:40:42.805Z,13.60
2022-10-28T05:43:14.872Z,13.60
2022-10-28T05:45:57.523Z,13.60
2022-10-28T05:48:29.662Z,13.60
2022-10-28T05:51:01.687Z,13.50
2022-10-28T05:53:34.052Z,13.50
2022-10-28T05:56:06.255Z,13.50
2022-10-28T05:58:39.245Z,13.40
2022-10-28T06:01:11.654Z,13.40
2022-10-28T06:03:43.820Z,13.40
2022-10-28T06:06:15.869Z,13.40
2022-10-28T06:08:47.997Z,13.30
2022-10-28T06:11:25.731Z,13.30
2022-10-28T06:13:57.836Z,13.30
2022-10-28T06:16:29.989Z,13.30
2022-10-28T06:19:02.009Z,13.30
2022-10-28T06:21:34.041Z,13.30
2022-10-28T06:24:09.857Z,13.40
2022-10-28T06:26:44.727Z,13.40
2022-10-28T06:29:17.030Z,13.40
2022-10-28T06:31:49.891Z,13.50
2022-10-28T06:34:21.882Z,13.50
2022-10-28T06:36:53.839Z,13.50
2022-10-28T06:41:58.930Z,13.50
2022-10-28T06:44:30.852Z,13.60
2022-10-28T06:47:04.525Z,13.60
2022-10-28T06:49:36.571Z,13.60
2022-10-28T06:52:08.875Z,13.60
2022-10-28T06:54:40.961Z,13.60
2022-10-28T06:57:16.488Z,13.60
2022-10-28T06:59:50.123Z,13.70
2022-10-28T07:02:22.361Z,13.70
2022-10-28T07:04:54.913Z,13.70
2022-10-28T07:07:26.989Z,13.80
2022-10-28T07:09:59.256Z,13.80
2022-10-28T07:12:31.709Z,13.80
2022-10-28T07:15:04.195Z,13.90
2022-10-28T07:17:37.074Z,13.90
2022-10-28T07:20:09.713Z,14.10
2022-10-28T07:22:42.149Z,14.00
2022-10-28T07:25:14.373Z,14.10
2022-10-28T07:27:46.734Z,14.20
2022-10-28T07:30:18.908Z,14.20
2022-10-28T07:32:51.230Z,14.40
2022-10-28T07:35:23.560Z,14.50
2022-10-28T07:37:55.773Z,14.50
2022-10-28T07:40:28.696Z,14.70
2022-10-28T07:43:00.952Z,14.80
2022-10-28T07:45:35.375Z,14.90
2022-10-28T07:48:08.144Z,14.90
2022-10-28T07:50:41.549Z,14.90
2022-10-28T07:55:58.523Z,15.00
2022-10-28T07:58:33.009Z,15.00
2022-10-28T08:01:07.593Z,15.00
2022-10-28T08:03:41.966Z,15.00
2022-10-28T08:06:18.037Z,15.10
2022-10-28T08:08:56.949Z,15.10
2022-10-28T08:11:29.346Z,15.10
2022-10-28T08:14:02.929Z,15.20
2022-10-28T08:16:35.417Z,15.30
2022-10-28T08:19:08.022Z,15.40
2022-10-28T08:21:42.043Z,15.50
2022-10-28T08:24:14.697Z,15.50
2022-10-28T08:26:47.255Z,15.60
2022-10-28T08:29:20.266Z,15.70
2022-10-28T08:31:53.105Z,15.80
2022-10-28T08:34:29.838Z,15.80
2022-10-28T08:37:02.702Z,15.90
2022-10-28T08:39:35.905Z,15.90
2022-10-28T08:42:42.733Z,15.90
2022-10-28T08:45:44.580Z,15.90
2022-10-28T08:48:36.982Z,16.00
2022-10-28T08:51:18.517Z,16.00
2022-10-28T08:54:17.144Z,16.00
2022-10-28T08:56:59.243Z,16.10
2022-10-28T08:59:37.132Z,16.10
2022-10-28T09:02:19.615Z,16.20
2022-10-28T09:05:07.995Z,16.30
2022-10-28T09:07:58.394Z,16.40
2022-10-28T09:10:52.380Z,16.50
2022-10-28T09:14:00.287Z,16.60
2022-10-28T09:16:49.733Z,16.70
2022-10-28T09:19:52.419Z,16.80
2022-10-28T09:22:41.383Z,16.90
2022-10-28T09:25:37.172Z,16.90
2022-10-28T09:28:47.417Z,16.90
2022-10-28T09:31:53.713Z,16.90
2022-10-28T09:35:16.016Z,16.90
2022-10-28T09:38:02.464Z,16.90
2022-10-28T09:41:24.599Z,16.80
2022-10-28T09:44:23.865Z,16.90
2022-10-28T09:47:25.362Z,16.90
2022-10-28T09:50:12.863Z,17.00
2022-10-28T09:53:08.199Z,17.10
2022-10-28T09:55:52.343Z,17.20
2022-10-28T09:58:24.787Z,17.30
2022-10-28T10:00:57.791Z,17.40
2022-10-28T10:03:30.625Z,17.50
2022-10-28T10:06:13.677Z,17.60
2022-10-28T10:09:05.757Z,17.70
2022-10-28T10:11:48.751Z,17.80
2022-10-28T10:14:31.589Z,17.90
2022-10-28T10:17:37.465Z,18.10
2022-10-28T10:20:21.353Z,18.30
2022-10-28T10:22:54.101Z,18.40
2022-10-28T10:25:30.984Z,18.50
2022-10-28T10:28:14.065Z,18.60
2022-10-28T10:30:51.400Z,18.60
2022-10-28T10:33:33.566Z,18.70
2022-10-28T10:36:11.102Z,18.70
2022-10-28T10:38:56.984Z,18.70
2022-10-28T10:41:37.380Z,18.70
2022-10-28T10:44:21.210Z,18.70
2022-10-28T10:47:05.099Z,18.60
2022-10-28T10:49:49.966Z,18.70
2022-10-28T10:52:26.200Z,18.70
2022-10-28T10:55:05.402Z,18.70
2022-10-28T10:57:41.356Z,18.80
2022-10-28T11:00:20.646Z,18.80
2022-10-28T11:02:56.951Z,18.90
2022-10-28T11:05:37.729Z,18.90
2022-10-28T11:08:34.580Z,19.00
2022-10-28T11:11:31.806Z,19.00
2022-10-28T11:14:24.787Z,19.10
2022-10-28T11:17:01.910Z,19.10
2022-10-28T11:19:36.898Z,19.20
2022-10-28T11:22:27.966Z,19.20
2022-10-28T11:25:30.024Z,19.30
2022-10-28T11:28:36.638Z,19.30
2022-10-28T11:31:34.540Z,19.40
2022-10-28T11:34:52.146Z,19.40
2022-10-28T11:38:06.640Z,19.50
2022-10-28T11:41:08.393Z,19.50
2022-10-28T11:43:56.274Z,19.50
2022-10-28T11:46:53.170Z,19.50
2022-10-28T11:50:08.275Z,19.40
2022-10-28T11:53:20.941Z,19.40
2022-10-28T11:56:34.459Z,19.40
2022-10-28T11:59:26.378Z,19.40
2022-10-28T12:02:35.049Z,19.40
2022-10-28T12:05:35.691Z,19.40
2022-10-28T12:08:49.784Z,19.40
2022-10-28T12:12:12.632Z,19.40
2022-10-28T12:15:12.916Z,19.50
2022-10-28T12:18:18.841Z,19.60
2022-10-28T12:21:15.279Z,19.70
2022-10-28T12:24:16.058Z,19.80
2022-10-28T12:26:58.412Z,19.90
2022-10-28T12:29:40.810Z,20.10
2022-10-28T12:32:22.705Z,20.40
2022-10-28T12:35:25.033Z,20.60
2022-10-28T12:38:40.558Z,20.70
2022-10-28T13:38:28.174Z,23.70
2022-10-28T13:41:02.322Z,23.80
2022-10-28T13:43:51.049Z,23.80
2022-10-28T13:46:59.207Z,23.70
2022-10-28T13:50:09.217Z,23.70
2022-10-28T13:55:58.524Z,23.50
2022-10-28T13:58:31.045Z,23.40
2022-10-28T14:01:37.472Z,23.30
2022-10-28T14:04:30.171Z,23.30
2022-10-28T14:07:11.000Z,23.10
2022-10-28T14:09:52.298Z,23.10
2022-10-28T14:12:28.755Z,23.00
2022-10-28T14:15:18.208Z,23.00
2022-10-28T14:18:16.141Z,22.90
2022-10-28T14:21:01.383Z,22.90
2022-10-28T14:23:33.522Z,22.80
2022-10-28T14:26:25.393Z,22.80
2022-10-28T14:28:57.433Z,22.70
2022-10-28T14:31:41.235Z,22.70
2022-10-28T14:34:14.444Z,22.60
2022-10-28T14:37:31.324Z,22.60
2022-10-28T14:40:49.105Z,22.60
2022-10-28T14:43:57.310Z,22.50
2022-10-28T14:47:27.584Z,22.50
2022-10-28T14:50:26.274Z,22.40
2022-10-28T14:53:17.460Z,22.40
2022-10-28T14:56:02.639Z,22.30
2022-10-28T14:58:43.866Z,22.20
2022-10-28T15:01:23.349Z,22.10
2022-10-28T15:04:11.057Z,22.00
2022-10-28T15:06:48.004Z,21.90
2022-10-28T15:09:28.974Z,21.90
2022-10-28T15:12:09.597Z,21.80
2022-10-28T15:14:52.827Z,21.70
2022-10-28T15:17:29.595Z,21.70
2022-10-28T15:20:41.895Z,21.60
2022-10-28T15:23:18.660Z,21.50
2022-10-28T15:26:12.274Z,21.40
2022-10-28T15:28:46.192Z,21.40
2022-10-28T15:31:18.306Z,21.30
2022-10-28T15:33:50.415Z,21.30
2022-10-28T15:36:27.122Z,21.20
2022-10-28T15:38:59.185Z,21.10
2022-10-28T15:41:52.348Z,21.00
2022-10-28T15:44:45.918Z,21.00
2022-10-28T15:47:29.442Z,20.80
2022-10-28T15:50:15.355Z,20.80
2022-10-28T15:53:11.367Z,20.70
2022-10-28T15:56:28.927Z,20.60
2022-10-28T15:59:01.030Z,20.50
2022-10-28T16:01:48.237Z,20.50
2022-10-28T16:04:23.617Z,20.40
2022-10-28T16:07:11.871Z,20.30
2022-10-28T16:09:48.026Z,20.30
2022-10-28T16:12:26.570Z,20.30
2022-10-28T16:15:02.432Z,20.20
2022-10-28T16:17:36.762Z,20.10
2022-10-28T16:20:18.292Z,20.10
2022-10-28T16:22:54.169Z,20.00
2022-10-28T16:25:26.374Z,20.00
2022-10-28T16:27:59.225Z,19.90
2022-10-28T16:30:31.400Z,19.80
2022-10-28T16:33:05.522Z,19.80
2022-10-28T16:35:39.196Z,19.70
2022-10-28T16:38:13.024Z,19.70
2022-10-28T16:40:51.551Z,19.60
2022-10-28T16:43:25.901Z,19.60
2022-10-28T16:46:00.590Z,19.50
2022-10-28T16:48:32.617Z,19.40
2022-10-28T16:51:24.866Z,19.40
2022-10-28T16:53:56.890Z,19.30
2022-10-28T16:56:30.576Z,19.20
2022-10-28T16:59:02.730Z,19.20
2022-10-28T17:01:34.788Z,19.10
2022-10-28T17:04:08.780Z,19.00
2022-10-28T17:06:40.770Z,19.00
2022-10-28T17:09:12.761Z,18.90
2022-10-28T17:11:44.770Z,18.90
2022-10-28T17:14:16.739Z,18.90
2022-10-28T17:16:48.755Z,18.90
2022-10-28T17:19:20.727Z,19.00
2022-10-28T17:21:54.862Z,19.00
2022-10-28T17:24:27.152Z,19.00
2022-10-28T17:26:59.286Z,18.90
2022-10-28T17:29:31.857Z,18.90
2022-10-28T17:32:04.721Z,18.90
2022-10-28T17:34:39.483Z,18.80
2022-10-28T17:37:11.793Z,18.80
2022-10-28T17:39:43.949Z,18.80
2022-10-28T17:42:16.122Z,18.70
2022-10-28T17:44:48.403Z,18.70
2022-10-28T17:47:21.226Z,18.60
2022-10-28T17:49:53.375Z,18.60
2022-10-28T17:52:26.232Z,18.60
2022-10-28T17:55:01.660Z,18.50
2022-10-28T17:57:34.078Z,18.50
2022-10-28T18:00:06.839Z,18.50
2022-10-28T18:02:40.572Z,18.40
2022-10-28T18:05:12.967Z,18.40
2022-10-28T18:07:45.157Z,18.30
2022-10-28T18:10:19.326Z,18.20
2022-10-28T18:12:56.335Z,18.10
2022-10-28T18:15:28.872Z,18.00
2022-10-28T18:18:04.435Z,17.90
2022-10-28T18:20:37.113Z,17.90
2022-10-28T18:23:09.422Z,17.80
2022-10-28T18:25:41.601Z,17.70
2022-10-28T18:28:17.663Z,17.70
2022-10-28T18:30:56.320Z,17.70
2022-10-28T18:33:34.004Z,17.60
2022-10-28T18:36:39.015Z,17.60
2022-10-28T18:39:11.161Z,17.60
2022-10-28T18:41:46.101Z,17.60
2022-10-28T18:44:21.667Z,17.50
2022-10-28T18:46:58.608Z,17.50
2022-10-28T18:49:30.728Z,17.50
2022-10-28T18:52:21.250Z,17.50
2022-10-28T18:55:05.379Z,17.40
2022-10-28T18:57:40.782Z,17.40
2022-10-28T19:00:18.072Z,17.40
2022-10-28T19:02:59.929Z,17.30
2022-10-28T19:05:35.480Z,17.30
2022-10-28T19:08:07.504Z,17.30
2022-10-28T19:10:57.486Z,17.20
2022-10-28T19:13:47.552Z,17.10
2022-10-28T19:16:22.236Z,17.10
2022-10-28T19:19:03.215Z,17.00
2022-10-28T19:21:35.804Z,17.00
2022-10-28T19:24:09.034Z,16.90
2022-10-28T19:26:46.571Z,16.80
2022-10-28T19:29:23.328Z,16.80
2022-10-28T19:32:01.743Z,16.80
2022-10-28T19:34:34.586Z,16.80
2022-10-28T19:37:18.794Z,16.70
2022-10-28T19:39:56.409Z,16.60
2022-10-28T19:42:31.536Z,16.60
2022-10-28T19:45:24.933Z,16.60
2022-10-28T19:48:03.809Z,16.50
2022-10-28T19:50:36.238Z,16.40
2022-10-28T19:53:11.331Z,16.40
2022-10-28T19:55:46.481Z,16.40
2022-10-28T19:58:18.644Z,16.30
2022-10-28T20:00:55.736Z,16.30
2022-10-28T20:03:34.630Z,16.30
2022-10-28T20:06:15.195Z,16.30
2022-10-28T20:08:49.598Z,16.40
2022-10-28T20:11:26.292Z,16.40
2022-10-28T20:14:04.287Z,16.40
2022-10-28T20:16:43.192Z,16.40
2022-10-28T20:19:16.688Z,16.50
2022-10-28T20:21:49.998Z,16.40
2022-10-28T20:24:21.994Z,16.40
2022-10-28T20:26:53.955Z,16.40
2022-10-28T20:29:25.887Z,16.30
2022-10-28T20:32:21.455Z,16.20
2022-10-28T20:34:55.904Z,16.10
2022-10-28T20:37:27.859Z,16.10
2022-10-28T20:40:02.814Z,16.00
2022-10-28T20:42:38.704Z,16.00
2022-10-28T20:45:10.930Z,16.00
2022-10-28T20:47:43.004Z,16.00
2022-10-28T20:50:14.997Z,15.90
2022-10-28T20:52:47.082Z,15.90
2022-10-28T20:55:19.082Z,15.80
2022-10-28T20:57:51.147Z,15.80
2022-10-28T21:00:23.272Z,15.70
2022-10-28T21:02:56.009Z,15.70
2022-10-28T21:05:31.596Z,15.60
2022-10-28T21:08:05.291Z,15.60
2022-10-28T21:10:38.158Z,15.50
2022-10-28T21:13:11.422Z,15.50
2022-10-28T21:15:45.864Z,15.50
2022-10-28T21:18:18.072Z,15.40
2022-10-28T21:20:56.932Z,15.40
2022-10-28T21:23:30.269Z,15.30
2022-10-28T21:26:05.128Z,15.30
2022-10-28T21:28:41.336Z,15.20
2022-10-28T21:31:17.108Z,15.20
2022-10-28T21:33:51.473Z,15.20
2022-10-28T21:36:23.915Z,15.10
2022-10-28T21:38:56.186Z,15.10
2022-10-28T21:41:29.792Z,15.10
2022-10-28T21:44:05.361Z,15.00
2022-10-28T21:46:37.448Z,15.00
2022-10-28T21:49:09.589Z,15.00
2022-10-28T21:51:42.330Z,15.00
2022-10-28T21:54:14.274Z,15.00
2022-10-28T21:56:46.323Z,15.10
2022-10-28T21:59:20.083Z,15.10
2022-10-28T22:01:52.172Z,15.10
2022-10-28T22:04:24.442Z,15.10
2022-10-28T22:06:56.608Z,15.10
2022-10-28T22:09:30.299Z,15.10
2022-10-28T22:12:03.356Z,15.00
2022-10-28T22:14:35.732Z,15.10
2022-10-28T22:17:07.816Z,15.10
2022-10-28T22:19:39.840Z,15.10
2022-10-28T22:22:13.916Z,15.10
2022-10-28T22:28:40.294Z,15.10
2022-10-28T22:31:19.316Z,15.00
2022-10-28T22:33:54.182Z,15.00
2022-10-28T22:36:28.376Z,15.00
2022-10-28T22:39:00.706Z,14.90
2022-10-28T22:41:33.113Z,14.90
2022-10-28T22:44:07.181Z,14.90
2022-10-28T22:46:40.723Z,14.80
2022-10-28T22:49:13.918Z,14.80
2022-10-28T22:51:45.836Z,14.70
2022-10-28T22:54:17.929Z,14.60
2022-10-28T22:56:50.333Z,14.60
2022-10-28T22:59:22.299Z,14.60
2022-10-28T23:01:54.604Z,14.50
2022-10-28T23:04:26.742Z,14.50
2022-10-28T23:06:59.112Z,14.50
2022-10-28T23:09:31.292Z,14.40
2022-10-28T23:12:03.413Z,14.40
2022-10-28T23:14:35.687Z,14.40
2022-10-28T23:17:08.325Z,14.30
2022-10-28T23:19:40.314Z,14.30
2022-10-28T23:22:12.256Z,14.30
2022-10-28T23:24:44.222Z,14.30
2022-10-28T23:27:16.293Z,14.30
2022-10-28T23:29:48.504Z,14.30
2022-10-28T23:32:20.559Z,14.30
2022-10-28T23:34:52.742Z,14.30
2022-10-28T23:37:24.794Z,14.20
2022-10-28T23:39:56.901Z,14.20
2022-10-28T23:42:28.997Z,14.10
2022-10-28T23:45:00.998Z,14.10
2022-10-28T23:47:33.167Z,14.10
2022-10-28T23:50:05.405Z,14.00
2022-10-28T23:52:37.885Z,14.00
2022-10-28T23:55:10.268Z,14.00
2022-10-28T23:57:42.262Z,14.00
